sensor_id;sensor_type;location;lat;lon;timestamp;pressure;altitude;pressure_sealevel;temperature;humidity
29505;BME280;16452;54.174;12.092;2022-09-16T00:00:21;100057.03;;;16.35;73.28
29505;BME280;16452;54.174;12.092;2022-09-16T00:02:50;100061.19;;;16.08;74.33
29505;BME280;16452;54.174;12.092;2022-09-16T00:05:16;100057.38;;;16.21;74.36
29505;BME280;16452;54.174;12.092;2022-09-16T00:07:42;100060.53;;;16.15;75.06
29505;BME280;16452;54.174;12.092;2022-09-16T00:10:08;100054.31;;;15.86;75.98
29505;BME280;16452;54.174;12.092;2022-09-16T00:12:34;100051.66;;;15.76;75.98
29505;BME280;16452;54.174;12.092;2022-09-16T00:15:01;100048.94;;;15.87;75.43
29505;BME280;16452;54.174;12.092;2022-09-16T00:17:26;100053.25;;;15.88;74.95
29505;BME280;16452;54.174;12.092;2022-09-16T00:19:54;100053.94;;;15.90;75.00
29505;BME280;16452;54.174;12.092;2022-09-16T00:22:20;100054.94;;;15.99;75.05
29505;BME280;16452;54.174;12.092;2022-09-16T00:24:48;100057.31;;;16.02;74.47
29505;BME280;16452;54.174;12.092;2022-09-16T00:27:13;100068.91;;;15.99;74.28
29505;BME280;16452;54.174;12.092;2022-09-16T00:29:39;100052.63;;;15.75;74.44
29505;BME280;16452;54.174;12.092;2022-09-16T00:32:05;100058.19;;;15.82;74.40
29505;BME280;16452;54.174;12.092;2022-09-16T00:34:31;100057.38;;;15.91;74.45
29505;BME280;16452;54.174;12.092;2022-09-16T00:36:56;100058.41;;;15.99;73.86
29505;BME280;16452;54.174;12.092;2022-09-16T00:39:22;100052.13;;;15.91;73.14
29505;BME280;16452;54.174;12.092;2022-09-16T00:41:48;100048.69;;;15.90;73.19
29505;BME280;16452;54.174;12.092;2022-09-16T00:44:59;100039.91;;;16.11;72.16
29505;BME280;16452;54.174;12.092;2022-09-16T00:47:39;100040.72;;;16.01;73.62
29505;BME280;16452;54.174;12.092;2022-09-16T00:50:16;100048.31;;;15.95;73.71
29505;BME280;16452;54.174;12.092;2022-09-16T00:52:44;100040.13;;;15.88;74.44
29505;BME280;16452;54.174;12.092;2022-09-16T00:55:16;100041.63;;;15.91;74.73
29505;BME280;16452;54.174;12.092;2022-09-16T00:57:43;100049.56;;;16.00;75.06
29505;BME280;16452;54.174;12.092;2022-09-16T01:00:12;100044.44;;;15.99;75.50
29505;BME280;16452;54.174;12.092;2022-09-16T01:02:41;100039.50;;;16.06;75.57
29505;BME280;16452;54.174;12.092;2022-09-16T01:05:15;100049.91;;;15.86;75.67
29505;BME280;16452;54.174;12.092;2022-09-16T01:07:45;100054.91;;;15.89;75.87
29505;BME280;16452;54.174;12.092;2022-09-16T01:10:18;100043.19;;;16.03;75.43
29505;BME280;16452;54.174;12.092;2022-09-16T01:12:47;100045.94;;;15.92;76.31
29505;BME280;16452;54.174;12.092;2022-09-16T01:15:15;100051.38;;;16.00;76.52
29505;BME280;16452;54.174;12.092;2022-09-16T01:18:07;100045.31;;;16.09;76.17
29505;BME280;16452;54.174;12.092;2022-09-16T01:21:05;100052.78;;;16.14;76.23
29505;BME280;16452;54.174;12.092;2022-09-16T01:36:15;100050.94;;;15.74;78.82
29505;BME280;16452;54.174;12.092;2022-09-16T01:44:59;100052.94;;;15.40;83.07
29505;BME280;16452;54.174;12.092;2022-09-16T01:51:43;100053.41;;;15.66;82.34
29505;BME280;16452;54.174;12.092;2022-09-16T01:54:19;100041.44;;;15.52;83.72
29505;BME280;16452;54.174;12.092;2022-09-16T01:57:17;100040.38;;;15.44;85.12
29505;BME280;16452;54.174;12.092;2022-09-16T02:00:02;100044.94;;;15.42;84.83
29505;BME280;16452;54.174;12.092;2022-09-16T02:02:47;100045.53;;;15.25;85.22
29505;BME280;16452;54.174;12.092;2022-09-16T02:07:56;100041.41;;;15.11;86.04
29505;BME280;16452;54.174;12.092;2022-09-16T02:10:31;100040.94;;;15.27;84.99
29505;BME280;16452;54.174;12.092;2022-09-16T02:13:13;100031.25;;;14.86;86.13
29505;BME280;16452;54.174;12.092;2022-09-16T02:15:43;100031.56;;;15.24;85.32
29505;BME280;16452;54.174;12.092;2022-09-16T02:18:14;100038.38;;;15.15;84.91
29505;BME280;16452;54.174;12.092;2022-09-16T02:20:45;100027.72;;;15.28;84.23
29505;BME280;16452;54.174;12.092;2022-09-16T02:23:22;100023.94;;;15.21;84.34
29505;BME280;16452;54.174;12.092;2022-09-16T02:25:51;100026.44;;;15.02;84.87
29505;BME280;16452;54.174;12.092;2022-09-16T02:28:32;100024.75;;;15.21;84.43
29505;BME280;16452;54.174;12.092;2022-09-16T02:31:02;100027.66;;;14.87;85.05
29505;BME280;16452;54.174;12.092;2022-09-16T02:33:39;100014.97;;;15.03;84.83
29505;BME280;16452;54.174;12.092;2022-09-16T02:36:07;100022.47;;;14.75;85.35
29505;BME280;16452;54.174;12.092;2022-09-16T02:38:42;100024.59;;;15.13;84.76
29505;BME280;16452;54.174;12.092;2022-09-16T02:41:09;100022.03;;;15.02;85.10
29505;BME280;16452;54.174;12.092;2022-09-16T02:43:43;100017.13;;;14.98;84.48
29505;BME280;16452;54.174;12.092;2022-09-16T02:46:54;100017.59;;;15.24;83.82
29505;BME280;16452;54.174;12.092;2022-09-16T02:49:59;100019.13;;;15.26;83.96
29505;BME280;16452;54.174;12.092;2022-09-16T02:52:56;100029.69;;;15.15;84.36
29505;BME280;16452;54.174;12.092;2022-09-16T02:55:59;100030.53;;;15.15;85.28
29505;BME280;16452;54.174;12.092;2022-09-16T02:58:26;100024.09;;;14.56;88.40
29505;BME280;16452;54.174;12.092;2022-09-16T03:00:53;100022.09;;;14.80;88.80
29505;BME280;16452;54.174;12.092;2022-09-16T03:03:20;100022.13;;;14.69;89.74
29505;BME280;16452;54.174;12.092;2022-09-16T03:06:23;100017.78;;;15.11;87.83
29505;BME280;16452;54.174;12.092;2022-09-16T03:08:57;100018.22;;;14.95;88.71
29505;BME280;16452;54.174;12.092;2022-09-16T03:14:32;100020.19;;;15.03;87.84
29505;BME280;16452;54.174;12.092;2022-09-16T03:22:53;100020.47;;;14.68;88.44
29505;BME280;16452;54.174;12.092;2022-09-16T03:26:16;100022.66;;;14.52;89.01
29505;BME280;16452;54.174;12.092;2022-09-16T03:28:57;100019.84;;;14.75;88.15
29505;BME280;16452;54.174;12.092;2022-09-16T03:31:49;100012.66;;;14.89;87.91
29505;BME280;16452;54.174;12.092;2022-09-16T03:34:29;100015.66;;;14.41;88.76
29505;BME280;16452;54.174;12.092;2022-09-16T03:37:01;100008.75;;;14.83;88.00
29505;BME280;16452;54.174;12.092;2022-09-16T03:39:29;100012.19;;;14.84;87.60
29505;BME280;16452;54.174;12.092;2022-09-16T03:42:03;100003.63;;;14.82;88.39
29505;BME280;16452;54.174;12.092;2022-09-16T03:44:34;100016.56;;;14.62;89.18
29505;BME280;16452;54.174;12.092;2022-09-16T03:47:02;100018.44;;;14.71;88.75
29505;BME280;16452;54.174;12.092;2022-09-16T03:49:28;100015.38;;;14.66;89.00
29505;BME280;16452;54.174;12.092;2022-09-16T03:51:55;100012.13;;;14.63;88.60
29505;BME280;16452;54.174;12.092;2022-09-16T03:54:21;100012.41;;;14.60;88.86
29505;BME280;16452;54.174;12.092;2022-09-16T03:56:47;100016.25;;;14.56;88.99
29505;BME280;16452;54.174;12.092;2022-09-16T03:59:13;100015.53;;;14.54;89.87
29505;BME280;16452;54.174;12.092;2022-09-16T04:01:38;100013.75;;;14.32;89.61
29505;BME280;16452;54.174;12.092;2022-09-16T04:04:04;100007.63;;;14.65;89.01
29505;BME280;16452;54.174;12.092;2022-09-16T04:06:30;100001.72;;;14.41;90.02
29505;BME280;16452;54.174;12.092;2022-09-16T04:08:55;100013.50;;;14.46;89.87
29505;BME280;16452;54.174;12.092;2022-09-16T04:11:22;100006.91;;;14.09;91.93
29505;BME280;16452;54.174;12.092;2022-09-16T04:13:48;100013.31;;;14.38;91.17
29505;BME280;16452;54.174;12.092;2022-09-16T04:16:19;100006.63;;;14.12;92.80
29505;BME280;16452;54.174;12.092;2022-09-16T04:18:46;100007.22;;;14.26;92.68
29505;BME280;16452;54.174;12.092;2022-09-16T04:21:12;100010.16;;;14.33;91.99
29505;BME280;16452;54.174;12.092;2022-09-16T04:23:38;100011.38;;;14.40;91.42
29505;BME280;16452;54.174;12.092;2022-09-16T04:26:04;100006.25;;;14.16;92.30
29505;BME280;16452;54.174;12.092;2022-09-16T04:28:31;100008.06;;;14.38;91.78
29505;BME280;16452;54.174;12.092;2022-09-16T04:31:05;100004.81;;;14.46;91.12
29505;BME280;16452;54.174;12.092;2022-09-16T04:33:33;100003.84;;;14.35;91.69
29505;BME280;16452;54.174;12.092;2022-09-16T04:36:18;100008.06;;;14.70;90.72
29505;BME280;16452;54.174;12.092;2022-09-16T04:38:46;100010.88;;;14.35;92.06
29505;BME280;16452;54.174;12.092;2022-09-16T04:41:18;99999.44;;;14.47;91.61
29505;BME280;16452;54.174;12.092;2022-09-16T04:43:44;100001.63;;;14.42;92.06
29505;BME280;16452;54.174;12.092;2022-09-16T04:46:10;100000.50;;;14.45;91.74
29505;BME280;16452;54.174;12.092;2022-09-16T04:48:38;100001.63;;;14.42;92.28
29505;BME280;16452;54.174;12.092;2022-09-16T04:51:10;99986.84;;;14.30;91.97
29505;BME280;16452;54.174;12.092;2022-09-16T04:53:38;99992.44;;;14.48;91.93
29505;BME280;16452;54.174;12.092;2022-09-16T04:56:07;99997.75;;;14.57;91.71
29505;BME280;16452;54.174;12.092;2022-09-16T04:58:35;100000.66;;;14.43;92.46
29505;BME280;16452;54.174;12.092;2022-09-16T05:01:06;100000.66;;;14.43;91.72
29505;BME280;16452;54.174;12.092;2022-09-16T05:03:32;99998.84;;;14.55;91.56
29505;BME280;16452;54.174;12.092;2022-09-16T05:06:10;99997.63;;;14.59;91.53
29505;BME280;16452;54.174;12.092;2022-09-16T05:08:37;99998.69;;;14.56;91.29
29505;BME280;16452;54.174;12.092;2022-09-16T05:11:16;99991.44;;;14.60;91.79
29505;BME280;16452;54.174;12.092;2022-09-16T05:13:42;100003.13;;;14.45;92.31
29505;BME280;16452;54.174;12.092;2022-09-16T05:16:11;99991.88;;;14.65;91.63
29505;BME280;16452;54.174;12.092;2022-09-16T05:18:39;99991.31;;;14.50;92.21
29505;BME280;16452;54.174;12.092;2022-09-16T05:21:08;99984.13;;;14.63;92.04
29505;BME280;16452;54.174;12.092;2022-09-16T05:23:34;99989.88;;;14.57;92.16
29505;BME280;16452;54.174;12.092;2022-09-16T05:26:08;100004.78;;;14.57;91.49
29505;BME280;16452;54.174;12.092;2022-09-16T05:28:35;99992.75;;;14.54;91.29
29505;BME280;16452;54.174;12.092;2022-09-16T05:31:29;99994.75;;;14.62;91.06
29505;BME280;16452;54.174;12.092;2022-09-16T05:34:02;99996.06;;;14.67;91.29
29505;BME280;16452;54.174;12.092;2022-09-16T05:36:31;99988.94;;;14.90;90.08
29505;BME280;16452;54.174;12.092;2022-09-16T05:38:57;99990.22;;;14.64;91.11
29505;BME280;16452;54.174;12.092;2022-09-16T05:41:23;99992.63;;;14.88;90.59
29505;BME280;16452;54.174;12.092;2022-09-16T05:43:49;99974.38;;;15.28;87.84
29505;BME280;16452;54.174;12.092;2022-09-16T05:46:19;99982.59;;;15.34;88.43
29505;BME280;16452;54.174;12.092;2022-09-16T05:48:45;99981.28;;;15.49;87.01
29505;BME280;16452;54.174;12.092;2022-09-16T05:51:15;99984.25;;;15.56;86.68
29505;BME280;16452;54.174;12.092;2022-09-16T05:53:42;99974.63;;;15.66;85.77
29505;BME280;16452;54.174;12.092;2022-09-16T05:56:12;99979.69;;;15.58;85.27
29505;BME280;16452;54.174;12.092;2022-09-16T05:58:38;99983.81;;;15.30;87.37
29505;BME280;16452;54.174;12.092;2022-09-16T06:01:17;99977.06;;;15.88;85.80
29505;BME280;16452;54.174;12.092;2022-09-16T06:03:44;99975.28;;;15.89;85.02
29505;BME280;16452;54.174;12.092;2022-09-16T06:06:30;99978.03;;;15.97;84.35
29505;BME280;16452;54.174;12.092;2022-09-16T06:08:59;99976.44;;;16.15;84.16
29505;BME280;16452;54.174;12.092;2022-09-16T06:11:27;99972.91;;;15.86;84.24
29505;BME280;16452;54.174;12.092;2022-09-16T06:13:55;99970.88;;;16.09;83.54
29505;BME280;16452;54.174;12.092;2022-09-16T06:16:23;99963.34;;;16.34;82.68
29505;BME280;16452;54.174;12.092;2022-09-16T06:18:54;99972.47;;;16.30;83.01
29505;BME280;16452;54.174;12.092;2022-09-16T06:21:20;99967.06;;;16.22;82.97
29505;BME280;16452;54.174;12.092;2022-09-16T06:23:46;99966.56;;;16.48;82.08
29505;BME280;16452;54.174;12.092;2022-09-16T06:26:19;99953.53;;;16.56;81.42
29505;BME280;16452;54.174;12.092;2022-09-16T06:28:47;99950.91;;;16.46;80.95
29505;BME280;16452;54.174;12.092;2022-09-16T06:31:24;99964.34;;;16.72;80.21
29505;BME280;16452;54.174;12.092;2022-09-16T06:33:51;99953.78;;;16.43;81.56
29505;BME280;16452;54.174;12.092;2022-09-16T06:36:27;99955.03;;;16.49;81.38
29505;BME280;16452;54.174;12.092;2022-09-16T06:38:53;99950.63;;;16.30;81.60
29505;BME280;16452;54.174;12.092;2022-09-16T06:41:20;99953.13;;;16.51;81.67
29505;BME280;16452;54.174;12.092;2022-09-16T06:43:48;99958.25;;;16.52;81.19
29505;BME280;16452;54.174;12.092;2022-09-16T06:46:22;99941.63;;;16.90;80.24
29505;BME280;16452;54.174;12.092;2022-09-16T06:48:51;99941.94;;;16.87;79.69
29505;BME280;16452;54.174;12.092;2022-09-16T06:51:23;99945.06;;;17.10;78.89
29505;BME280;16452;54.174;12.092;2022-09-16T06:53:50;99949.22;;;17.12;79.23
29505;BME280;16452;54.174;12.092;2022-09-16T06:56:19;99945.31;;;17.26;78.44
29505;BME280;16452;54.174;12.092;2022-09-16T06:58:49;99948.47;;;17.39;77.66
29505;BME280;16452;54.174;12.092;2022-09-16T07:01:22;99945.75;;;17.21;78.00
29505;BME280;16452;54.174;12.092;2022-09-16T07:03:51;99950.53;;;17.36;78.11
29505;BME280;16452;54.174;12.092;2022-09-16T07:06:19;99944.84;;;17.40;78.39
29505;BME280;16452;54.174;12.092;2022-09-16T07:08:46;99943.91;;;17.32;78.00
29505;BME280;16452;54.174;12.092;2022-09-16T07:11:26;99950.50;;;16.89;79.56
29505;BME280;16452;54.174;12.092;2022-09-16T07:13:52;99941.94;;;16.87;79.39
29505;BME280;16452;54.174;12.092;2022-09-16T07:16:24;99943.00;;;17.04;78.56
29505;BME280;16452;54.174;12.092;2022-09-16T07:18:55;99938.38;;;17.35;77.93
29505;BME280;16452;54.174;12.092;2022-09-16T07:21:25;99941.97;;;17.24;78.41
29505;BME280;16452;54.174;12.092;2022-09-16T07:23:59;99942.50;;;17.37;76.69
29505;BME280;16452;54.174;12.092;2022-09-16T07:26:29;99942.50;;;17.37;76.55
29505;BME280;16452;54.174;12.092;2022-09-16T07:28:59;99936.78;;;17.51;76.76
29505;BME280;16452;54.174;12.092;2022-09-16T07:31:30;99935.22;;;17.68;75.94
29505;BME280;16452;54.174;12.092;2022-09-16T07:33:57;99937.84;;;17.68;75.36
29505;BME280;16452;54.174;12.092;2022-09-16T07:36:28;99937.34;;;18.10;73.50
29505;BME280;16452;54.174;12.092;2022-09-16T07:38:55;99945.06;;;18.38;72.08
29505;BME280;16452;54.174;12.092;2022-09-16T07:41:29;99941.13;;;18.25;72.17
29505;BME280;16452;54.174;12.092;2022-09-16T07:43:57;99949.97;;;18.33;71.35
29505;BME280;16452;54.174;12.092;2022-09-16T07:46:26;99943.09;;;18.23;71.47
29505;BME280;16452;54.174;12.092;2022-09-16T07:48:52;99939.84;;;18.29;71.54
29505;BME280;16452;54.174;12.092;2022-09-16T07:51:22;99941.22;;;18.51;70.65
29505;BME280;16452;54.174;12.092;2022-09-16T07:53:53;99937.53;;;18.79;70.54
29505;BME280;16452;54.174;12.092;2022-09-16T07:56:21;99934.59;;;18.64;69.58
29505;BME280;16452;54.174;12.092;2022-09-16T07:58:50;99947.72;;;18.74;69.23
29505;BME280;16452;54.174;12.092;2022-09-16T08:01:16;99936.78;;;18.06;71.59
29505;BME280;16452;54.174;12.092;2022-09-16T08:03:43;99943.63;;;18.26;70.95
29505;BME280;16452;54.174;12.092;2022-09-16T08:06:18;99942.00;;;17.98;70.24
29505;BME280;16452;54.174;12.092;2022-09-16T08:08:45;99938.09;;;18.20;70.11
29505;BME280;16452;54.174;12.092;2022-09-16T08:11:13;99958.00;;;18.14;69.87
29505;BME280;16452;54.174;12.092;2022-09-16T08:13:41;99947.75;;;18.29;69.45
29505;BME280;16452;54.174;12.092;2022-09-16T08:16:11;99948.75;;;18.28;68.64
29505;BME280;16452;54.174;12.092;2022-09-16T08:18:37;99948.06;;;18.43;68.33
29505;BME280;16452;54.174;12.092;2022-09-16T08:21:12;99950.69;;;18.26;67.77
29505;BME280;16452;54.174;12.092;2022-09-16T08:23:38;99940.66;;;18.12;68.53
29505;BME280;16452;54.174;12.092;2022-09-16T08:26:05;99940.47;;;18.23;69.63
29505;BME280;16452;54.174;12.092;2022-09-16T08:28:33;99942.16;;;18.14;69.34
29505;BME280;16452;54.174;12.092;2022-09-16T08:31:00;99956.78;;;18.09;68.79
29505;BME280;16452;54.174;12.092;2022-09-16T08:33:27;99947.19;;;18.08;67.42
29505;BME280;16452;54.174;12.092;2022-09-16T08:36:11;99948.78;;;18.18;66.74
29505;BME280;16452;54.174;12.092;2022-09-16T08:38:40;99959.44;;;18.44;66.17
29505;BME280;16452;54.174;12.092;2022-09-16T08:44:44;99953.63;;;18.40;65.31
29505;BME280;16452;54.174;12.092;2022-09-16T08:50:37;99959.91;;;18.39;67.71
29505;BME280;16452;54.174;12.092;2022-09-16T08:53:11;99948.56;;;18.29;66.09
29505;BME280;16452;54.174;12.092;2022-09-16T08:55:44;99945.94;;;18.29;67.02
29505;BME280;16452;54.174;12.092;2022-09-16T08:58:25;99942.31;;;18.30;67.25
29505;BME280;16452;54.174;12.092;2022-09-16T09:01:03;99949.94;;;18.16;67.43
29505;BME280;16452;54.174;12.092;2022-09-16T09:09:45;99957.53;;;18.19;66.96
29505;BME280;16452;54.174;12.092;2022-09-16T09:12:48;99944.81;;;18.14;67.86
29505;BME280;16452;54.174;12.092;2022-09-16T09:21:37;99948.53;;;18.39;66.84
29505;BME280;16452;54.174;12.092;2022-09-16T09:24:35;99946.13;;;18.28;66.09
29505;BME280;16452;54.174;12.092;2022-09-16T09:27:21;99946.81;;;18.02;65.98
29505;BME280;16452;54.174;12.092;2022-09-16T09:30:08;99952.00;;;18.39;65.02
29505;BME280;16452;54.174;12.092;2022-09-16T09:33:11;99942.03;;;18.33;64.06
29505;BME280;16452;54.174;12.092;2022-09-16T09:36:14;99949.97;;;18.33;64.24
29505;BME280;16452;54.174;12.092;2022-09-16T09:41:44;99942.63;;;18.10;66.40
29505;BME280;16452;54.174;12.092;2022-09-16T09:47:58;99943.28;;;18.74;66.44
29505;BME280;16452;54.174;12.092;2022-09-16T09:50:38;99942.66;;;18.80;66.28
29505;BME280;16452;54.174;12.092;2022-09-16T09:53:30;99929.38;;;18.90;65.10
29505;BME280;16452;54.174;12.092;2022-09-16T09:56:30;99943.03;;;18.50;65.16
29505;BME280;16452;54.174;12.092;2022-09-16T09:59:30;99939.25;;;18.70;63.91
29505;BME280;16452;54.174;12.092;2022-09-16T10:01:58;99937.91;;;18.66;63.94
29505;BME280;16452;54.174;12.092;2022-09-16T10:04:35;99927.84;;;18.87;63.72
29505;BME280;16452;54.174;12.092;2022-09-16T10:07:04;99938.28;;;18.71;65.27
29505;BME280;16452;54.174;12.092;2022-09-16T10:09:32;99930.13;;;18.47;65.70
29505;BME280;16452;54.174;12.092;2022-09-16T10:11:58;99933.75;;;18.64;65.66
29505;BME280;16452;54.174;12.092;2022-09-16T10:14:36;99922.38;;;19.07;64.03
29505;BME280;16452;54.174;12.092;2022-09-16T10:17:15;99931.97;;;19.08;64.63
29505;BME280;16452;54.174;12.092;2022-09-16T10:22:30;99933.47;;;19.10;62.48
29505;BME280;16452;54.174;12.092;2022-09-16T10:25:04;99927.09;;;18.95;63.89
29505;BME280;16452;54.174;12.092;2022-09-16T10:27:35;99931.94;;;18.64;64.83
29505;BME280;16452;54.174;12.092;2022-09-16T10:30:13;99923.47;;;18.96;64.27
29505;BME280;16452;54.174;12.092;2022-09-16T10:33:01;99926.28;;;19.20;62.56
29505;BME280;16452;54.174;12.092;2022-09-16T10:35:34;99927.97;;;19.29;63.90
29505;BME280;16452;54.174;12.092;2022-09-16T10:38:21;99927.19;;;19.37;63.31
29505;BME280;16452;54.174;12.092;2022-09-16T10:40:57;99922.47;;;19.23;61.45
29505;BME280;16452;54.174;12.092;2022-09-16T10:43:28;99929.13;;;19.27;61.63
29505;BME280;16452;54.174;12.092;2022-09-16T10:45:55;99918.81;;;19.42;61.08
29505;BME280;16452;54.174;12.092;2022-09-16T10:48:26;99919.06;;;19.31;62.83
29505;BME280;16452;54.174;12.092;2022-09-16T10:51:03;99911.78;;;19.50;61.93
29505;BME280;16452;54.174;12.092;2022-09-16T10:53:37;99919.56;;;19.34;62.88
29505;BME280;16452;54.174;12.092;2022-09-16T10:56:27;99910.28;;;19.48;62.40
29505;BME280;16452;54.174;12.092;2022-09-16T10:59:11;99918.09;;;19.32;65.58
29505;BME280;16452;54.174;12.092;2022-09-16T11:02:28;99913.72;;;19.22;67.13
29505;BME280;16452;54.174;12.092;2022-09-16T11:08:27;99923.47;;;19.22;64.45
29505;BME280;16452;54.174;12.092;2022-09-16T11:11:33;99933.09;;;19.05;65.08
29505;BME280;16452;54.174;12.092;2022-09-16T11:19:36;99917.84;;;18.91;67.39
29505;BME280;16452;54.174;12.092;2022-09-16T11:22:35;99906.53;;;19.33;66.53
29505;BME280;16452;54.174;12.092;2022-09-16T11:26:10;99906.06;;;19.37;69.82
29505;BME280;16452;54.174;12.092;2022-09-16T11:31:46;99944.19;;;18.65;74.89
29505;BME280;16452;54.174;12.092;2022-09-16T11:34:35;99925.81;;;18.81;76.56
29505;BME280;16452;54.174;12.092;2022-09-16T11:37:22;99923.88;;;18.48;78.29
29505;BME280;16452;54.174;12.092;2022-09-16T11:40:27;99934.69;;;18.55;74.76
29505;BME280;16452;54.174;12.092;2022-09-16T11:46:20;99920.13;;;18.51;74.92
29505;BME280;16452;54.174;12.092;2022-09-16T11:49:05;99922.19;;;18.57;74.64
29505;BME280;16452;54.174;12.092;2022-09-16T11:51:56;99929.25;;;18.56;76.59
29505;BME280;16452;54.174;12.092;2022-09-16T11:57:27;99924.66;;;18.58;73.26
29505;BME280;16452;54.174;12.092;2022-09-16T12:00:05;99907.09;;;18.67;71.09
29505;BME280;16452;54.174;12.092;2022-09-16T12:05:34;99909.13;;;18.55;72.26
29505;BME280;16452;54.174;12.092;2022-09-16T12:08:24;99914.53;;;18.71;71.78
29505;BME280;16452;54.174;12.092;2022-09-16T12:11:12;99911.91;;;18.71;73.04
29505;BME280;16452;54.174;12.092;2022-09-16T12:13:50;99922.44;;;18.54;74.06
29505;BME280;16452;54.174;12.092;2022-09-16T12:16:58;99916.56;;;18.77;72.33
29505;BME280;16452;54.174;12.092;2022-09-16T12:19:46;99909.22;;;18.89;71.39
29505;BME280;16452;54.174;12.092;2022-09-16T12:22:41;99913.38;;;18.92;70.06
29505;BME280;16452;54.174;12.092;2022-09-16T12:25:21;99904.22;;;18.60;71.51
29505;BME280;16452;54.174;12.092;2022-09-16T12:27:56;99915.25;;;18.56;70.86
29505;BME280;16452;54.174;12.092;2022-09-16T12:30:36;99894.25;;;18.54;69.91
29505;BME280;16452;54.174;12.092;2022-09-16T12:33:30;99895.69;;;18.66;68.78
29505;BME280;16452;54.174;12.092;2022-09-16T12:36:07;99897.50;;;18.66;68.36
29505;BME280;16452;54.174;12.092;2022-09-16T12:38:35;99893.81;;;18.59;70.40
29505;BME280;16452;54.174;12.092;2022-09-16T12:50:06;99870.88;;;19.03;67.26
29505;BME280;16452;54.174;12.092;2022-09-16T13:01:33;99864.34;;;19.15;65.62
29505;BME280;16452;54.174;12.092;2022-09-16T13:04:21;99870.06;;;19.36;64.64
29505;BME280;16452;54.174;12.092;2022-09-16T13:06:52;99860.75;;;19.50;64.27
29505;BME280;16452;54.174;12.092;2022-09-16T13:12:17;99849.56;;;19.30;62.19
29505;BME280;16452;54.174;12.092;2022-09-16T13:14:54;99857.50;;;19.30;62.32
29505;BME280;16452;54.174;12.092;2022-09-16T13:17:37;99848.03;;;19.19;61.43
29505;BME280;16452;54.174;12.092;2022-09-16T13:26:07;99844.84;;;19.08;62.67
29505;BME280;16452;54.174;12.092;2022-09-16T13:33:38;99848.78;;;19.04;63.81
29505;BME280;16452;54.174;12.092;2022-09-16T13:38:50;99833.53;;;19.23;62.64
29505;BME280;16452;54.174;12.092;2022-09-16T13:44:38;99835.16;;;19.58;62.83
29505;BME280;16452;54.174;12.092;2022-09-16T13:49:51;99840.41;;;20.00;62.47
29505;BME280;16452;54.174;12.092;2022-09-16T13:52:30;99838.38;;;19.78;62.71
29505;BME280;16452;54.174;12.092;2022-09-16T13:55:04;99822.69;;;19.85;62.99
29505;BME280;16452;54.174;12.092;2022-09-16T14:11:57;99837.38;;;19.87;61.84
29505;BME280;16452;54.174;12.092;2022-09-16T14:14:31;99831.84;;;19.48;61.99
29505;BME280;16452;54.174;12.092;2022-09-16T14:17:03;99835.72;;;19.36;62.93
29505;BME280;16452;54.174;12.092;2022-09-16T14:19:34;99838.56;;;19.43;62.82
29505;BME280;16452;54.174;12.092;2022-09-16T14:22:16;99832.56;;;19.66;61.78
29505;BME280;16452;54.174;12.092;2022-09-16T14:24:45;99832.28;;;19.44;63.63
29505;BME280;16452;54.174;12.092;2022-09-16T14:27:20;99847.28;;;19.35;64.40
29505;BME280;16452;54.174;12.092;2022-09-16T14:29:57;99830.09;;;19.31;64.22
29505;BME280;16452;54.174;12.092;2022-09-16T14:32:27;99817.88;;;19.30;65.01
29505;BME280;16452;54.174;12.092;2022-09-16T14:34:56;99826.03;;;19.45;65.47
29505;BME280;16452;54.174;12.092;2022-09-16T14:37:29;99829.91;;;19.24;66.35
29505;BME280;16452;54.174;12.092;2022-09-16T14:40:05;99839.41;;;19.09;73.69
29505;BME280;16452;54.174;12.092;2022-09-16T14:42:35;99832.25;;;18.76;77.24
29505;BME280;16452;54.174;12.092;2022-09-16T14:45:02;99824.06;;;18.79;77.86
29505;BME280;16452;54.174;12.092;2022-09-16T14:47:33;99829.31;;;18.79;78.42
29505;BME280;16452;54.174;12.092;2022-09-16T14:50:27;99837.25;;;18.79;78.78
29505;BME280;16452;54.174;12.092;2022-09-16T14:53:01;99831.25;;;18.69;78.47
29505;BME280;16452;54.174;12.092;2022-09-16T14:55:30;99831.25;;;18.69;76.78
29505;BME280;16452;54.174;12.092;2022-09-16T14:57:57;99833.56;;;18.72;76.21
29505;BME280;16452;54.174;12.092;2022-09-16T15:00:30;99829.94;;;18.73;75.09
29505;BME280;16452;54.174;12.092;2022-09-16T15:03:09;99820.31;;;18.90;68.53
29505;BME280;16452;54.174;12.092;2022-09-16T15:05:41;99817.25;;;18.76;66.03
29505;BME280;16452;54.174;12.092;2022-09-16T15:11:34;99834.78;;;19.11;63.94
29505;BME280;16452;54.174;12.092;2022-09-16T15:14:05;99837.94;;;19.15;63.62
29505;BME280;16452;54.174;12.092;2022-09-16T15:16:32;99839.06;;;19.04;64.22
29505;BME280;16452;54.174;12.092;2022-09-16T15:19:03;99844.84;;;19.08;64.93
29505;BME280;16452;54.174;12.092;2022-09-16T15:21:35;99830.75;;;18.99;65.90
29505;BME280;16452;54.174;12.092;2022-09-16T15:24:13;99837.94;;;19.15;65.93
29505;BME280;16452;54.174;12.092;2022-09-16T15:26:43;99830.13;;;19.05;66.21
29505;BME280;16452;54.174;12.092;2022-09-16T15:31:43;99834.19;;;18.66;67.62
29505;BME280;16452;54.174;12.092;2022-09-16T15:36:56;99836.47;;;18.61;68.50
29505;BME280;16452;54.174;12.092;2022-09-16T15:42:19;99827.53;;;18.79;69.04
29505;BME280;16452;54.174;12.092;2022-09-16T15:44:57;99825.25;;;18.84;69.36
29505;BME280;16452;54.174;12.092;2022-09-16T15:47:28;99834.34;;;18.90;67.89
29505;BME280;16452;54.174;12.092;2022-09-16T15:50:12;99841.78;;;18.95;68.25
29505;BME280;16452;54.174;12.092;2022-09-16T15:53:09;99839.59;;;18.64;69.99
29505;BME280;16452;54.174;12.092;2022-09-16T16:01:45;99844.47;;;18.77;78.40